Startpagina
METAR-TAF:

METAR-TAF

Vliegvelden :

Albert, Frankrijk

breedte: 49-58-21N, lengte: 002-41-29E, hoogte: 111 m

Actueel weer

Dit bericht is 37 minuten geleden gemaakt, om 08:00 UTC
Wind 10 kt uit het zuidoosten
Temperatuur 1°C
Vochtigheid 100%
Druk 1006 hPa
Zicht: 0450 m
mist

METAR: LFAQ 210800Z AUTO 13010KT 0500 0450 R27/0700N FG VV/// 01/01 Q1006 NOSIG

Tijdstip: 09:37 (08:37 UTC)

Verwachting

Dit bericht is 3 uur en het 37 minuten geleden gemaakt, om 05:00 UTC
Verwachting geldig van 21 om 06 UTC tot 21 om 15 UTC
Wind 12 kt uit het zuidoosten
Zicht: 3000 m
Geheel bewolkt op 200 ft
nevel
Tijdelijke
van 21 om 06 UTC tot 21 om 10 UTC
Zicht: 0500 m
mist
Wijzigt naar
van 21 om 11 UTC tot 21 om 14 UTC
Zicht: 7000 m
Geheel bewolkt op 700 ft

TAF: LFAQ 210500Z 2106/2115 13012KT 3000 BR OVC002 TEMPO 2106/2110 0500 FG VV/// BECMG 2111/2114 7000 NSW OVC007

Waarnemingen en weersverwachtingen van meer dan 4000 vliegvelden (METAR en TAF).

De beschikbare stations zijn de gele en rode punten op de kaart.

Ga met uw muis naar het station om de naam te zien.

Klik dan om waarnemingen en weersverwachtingen te zien.

kaart wijzigen: klik op de groene knoppen met een zwart kruis om in te zoomen, op de groene knop met een streepje om uit te zoomen of op de groene pijlen voor aangrenzende kaarten.


METAR-TAF: